Startpagina
METAR-TAF:

METAR-TAF

Vliegvelden :

Vliegbasis Kleine-Brogel

Peer, België

breedte: 51-10N, lengte: 005-28E, hoogte: 55 m

Actueel weer

Dit bericht is 35 minuten geleden gemaakt, om 11:55 UTC
Wind 18 kt uit het westzuidwesten
Temperatuur 10°C
Vochtigheid 82%
Druk 1024 hPa
Zicht 10 km of meer

METAR: EBBL 291155Z AUTO 24018KT 9999 OVC018/// 10/07 Q1024 WHT

Tijdstip: 13:30 (12:30 UTC)

Verwachting

Dit bericht is 20 uur en het 49 minuten geleden gemaakt, om 15:41 UTC
Verwachting geldig van 28 om 19 UTC tot 29 om 07 UTC
Wind 10 kt uit het zuidwesten
Zicht: 4000 m
Gebroken wolken op 700 ft
Gebroken wolken op 1500 ft
nevel
Tijdelijke
van 29 om 02 UTC tot 29 om 07 UTC
Gebroken wolken op 300 ft
Gebroken wolken op 700 ft
lichte motregen

TAF: EBBL 281541Z 2819/2907 23010KT 4000 BR BKN007 BKN015 TEMPO 2902/2907 -DZ BKN003 BKN007

Waarnemingen en weersverwachtingen van meer dan 4000 vliegvelden (METAR en TAF).

De beschikbare stations zijn de gele en rode punten op de kaart.

Ga met uw muis naar het station om de naam te zien.

Klik dan om waarnemingen en weersverwachtingen te zien.

kaart wijzigen: klik op de groene knoppen met een zwart kruis om in te zoomen, op de groene knop met een streepje om uit te zoomen of op de groene pijlen voor aangrenzende kaarten.


METAR-TAF: